sensor_id;sensor_type;location;lat;lon;timestamp;temperature;humidity
70830;SHT30;58451;51.550;7.208;2022-08-26T00:01:50;21.37;61.32
70830;SHT30;58451;51.550;7.208;2022-08-26T00:04:20;21.33;61.44
70830;SHT30;58451;51.550;7.208;2022-08-26T00:06:50;21.30;61.55
70830;SHT30;58451;51.550;7.208;2022-08-26T00:09:18;21.27;61.66
70830;SHT30;58451;51.550;7.208;2022-08-26T00:11:46;21.25;61.72
70830;SHT30;58451;51.550;7.208;2022-08-26T00:14:14;21.21;61.81
70830;SHT30;58451;51.550;7.208;2022-08-26T00:16:42;21.19;61.93
70830;SHT30;58451;51.550;7.208;2022-08-26T00:19:18;21.14;62.01
70830;SHT30;58451;51.550;7.208;2022-08-26T00:21:47;21.11;62.07
70830;SHT30;58451;51.550;7.208;2022-08-26T00:24:17;21.07;62.26
70830;SHT30;58451;51.550;7.208;2022-08-26T00:26:47;21.03;62.50
70830;SHT30;58451;51.550;7.208;2022-08-26T00:29:17;21.00;62.51
70830;SHT30;58451;51.550;7.208;2022-08-26T00:31:46;20.97;62.77
70830;SHT30;58451;51.550;7.208;2022-08-26T00:34:14;20.94;63.02
70830;SHT30;58451;51.550;7.208;2022-08-26T00:36:45;20.91;63.13
70830;SHT30;58451;51.550;7.208;2022-08-26T00:39:17;20.88;63.90
70830;SHT30;58451;51.550;7.208;2022-08-26T00:41:45;20.85;64.09
70830;SHT30;58451;51.550;7.208;2022-08-26T00:44:12;20.85;64.32
70830;SHT30;58451;51.550;7.208;2022-08-26T00:46:41;20.84;64.03
70830;SHT30;58451;51.550;7.208;2022-08-26T00:49:15;20.83;64.51
70830;SHT30;58451;51.550;7.208;2022-08-26T00:51:51;20.82;64.09
70830;SHT30;58451;51.550;7.208;2022-08-26T00:54:23;20.79;64.20
70830;SHT30;58451;51.550;7.208;2022-08-26T00:56:54;20.79;64.27
70830;SHT30;58451;51.550;7.208;2022-08-26T00:59:29;20.78;64.43
70830;SHT30;58451;51.550;7.208;2022-08-26T01:01:58;20.78;64.75
70830;SHT30;58451;51.550;7.208;2022-08-26T01:04:28;20.78;64.66
70830;SHT30;58451;51.550;7.208;2022-08-26T01:06:59;20.77;64.47
70830;SHT30;58451;51.550;7.208;2022-08-26T01:09:27;20.78;64.34
70830;SHT30;58451;51.550;7.208;2022-08-26T01:11:57;20.76;64.19
70830;SHT30;58451;51.550;7.208;2022-08-26T01:14:31;20.75;64.10
70830;SHT30;58451;51.550;7.208;2022-08-26T01:17:03;20.73;64.06
70830;SHT30;58451;51.550;7.208;2022-08-26T01:19:42;20.72;64.65
70830;SHT30;58451;51.550;7.208;2022-08-26T01:23:01;20.70;64.39
70830;SHT30;58451;51.550;7.208;2022-08-26T01:25:36;20.66;64.32
70830;SHT30;58451;51.550;7.208;2022-08-26T01:28:16;20.63;64.30
70830;SHT30;58451;51.550;7.208;2022-08-26T01:30:49;20.60;64.23
70830;SHT30;58451;51.550;7.208;2022-08-26T01:33:22;20.57;64.61
70830;SHT30;58451;51.550;7.208;2022-08-26T01:36:08;20.56;64.64
70830;SHT30;58451;51.550;7.208;2022-08-26T01:38:37;20.55;64.56
70830;SHT30;58451;51.550;7.208;2022-08-26T01:41:06;20.53;64.73
70830;SHT30;58451;51.550;7.208;2022-08-26T01:43:45;20.53;64.78
70830;SHT30;58451;51.550;7.208;2022-08-26T01:46:18;20.51;65.10
70830;SHT30;58451;51.550;7.208;2022-08-26T01:48:50;20.53;65.64
70830;SHT30;58451;51.550;7.208;2022-08-26T01:51:21;20.54;65.68
70830;SHT30;58451;51.550;7.208;2022-08-26T01:53:50;20.53;65.11
70830;SHT30;58451;51.550;7.208;2022-08-26T01:56:19;20.52;65.10
70830;SHT30;58451;51.550;7.208;2022-08-26T01:58:50;20.57;66.01
70830;SHT30;58451;51.550;7.208;2022-08-26T02:01:23;20.63;66.43
70830;SHT30;58451;51.550;7.208;2022-08-26T02:04:09;20.69;66.53
70830;SHT30;58451;51.550;7.208;2022-08-26T02:06:47;20.77;66.98
70830;SHT30;58451;51.550;7.208;2022-08-26T02:09:15;20.80;66.22
70830;SHT30;58451;51.550;7.208;2022-08-26T02:11:45;20.82;66.05
70830;SHT30;58451;51.550;7.208;2022-08-26T02:14:33;20.84;65.72
70830;SHT30;58451;51.550;7.208;2022-08-26T02:17:09;20.82;65.76
70830;SHT30;58451;51.550;7.208;2022-08-26T02:19:39;20.82;66.12
70830;SHT30;58451;51.550;7.208;2022-08-26T02:22:14;20.83;65.73
70830;SHT30;58451;51.550;7.208;2022-08-26T02:27:24;20.80;66.18
70830;SHT30;58451;51.550;7.208;2022-08-26T02:30:12;20.80;66.74
70830;SHT30;58451;51.550;7.208;2022-08-26T02:32:51;20.80;66.43
70830;SHT30;58451;51.550;7.208;2022-08-26T02:35:19;20.78;67.26
70830;SHT30;58451;51.550;7.208;2022-08-26T02:37:50;20.76;67.36
70830;SHT30;58451;51.550;7.208;2022-08-26T02:40:20;20.73;67.53
70830;SHT30;58451;51.550;7.208;2022-08-26T02:42:50;20.70;68.25
70830;SHT30;58451;51.550;7.208;2022-08-26T02:45:22;20.67;68.69
70830;SHT30;58451;51.550;7.208;2022-08-26T02:47:50;20.66;69.30
70830;SHT30;58451;51.550;7.208;2022-08-26T02:50:17;20.66;70.50
70830;SHT30;58451;51.550;7.208;2022-08-26T02:52:45;20.66;71.72
70830;SHT30;58451;51.550;7.208;2022-08-26T02:55:14;20.65;71.42
70830;SHT30;58451;51.550;7.208;2022-08-26T02:57:41;20.63;71.70
70830;SHT30;58451;51.550;7.208;2022-08-26T03:00:09;20.62;72.22
70830;SHT30;58451;51.550;7.208;2022-08-26T03:02:40;20.60;71.70
70830;SHT30;58451;51.550;7.208;2022-08-26T03:05:07;20.57;71.62
70830;SHT30;58451;51.550;7.208;2022-08-26T03:07:36;20.52;71.28
70830;SHT30;58451;51.550;7.208;2022-08-26T03:10:04;20.47;71.49
70830;SHT30;58451;51.550;7.208;2022-08-26T03:12:34;20.45;71.88
70830;SHT30;58451;51.550;7.208;2022-08-26T03:15:02;20.42;72.30
70830;SHT30;58451;51.550;7.208;2022-08-26T03:17:43;20.39;73.17
70830;SHT30;58451;51.550;7.208;2022-08-26T03:20:12;20.35;72.80
70830;SHT30;58451;51.550;7.208;2022-08-26T03:22:42;20.32;72.23
70830;SHT30;58451;51.550;7.208;2022-08-26T03:25:12;20.28;72.89
70830;SHT30;58451;51.550;7.208;2022-08-26T03:27:42;20.26;73.98
70830;SHT30;58451;51.550;7.208;2022-08-26T03:30:10;20.24;74.52
70830;SHT30;58451;51.550;7.208;2022-08-26T03:32:58;20.24;75.08
70830;SHT30;58451;51.550;7.208;2022-08-26T03:35:26;20.26;75.97
70830;SHT30;58451;51.550;7.208;2022-08-26T03:37:53;20.27;76.25
70830;SHT30;58451;51.550;7.208;2022-08-26T03:40:20;20.26;76.32
70830;SHT30;58451;51.550;7.208;2022-08-26T03:42:54;20.25;76.63
70830;SHT30;58451;51.550;7.208;2022-08-26T03:45:21;20.24;76.45
70830;SHT30;58451;51.550;7.208;2022-08-26T03:47:47;20.22;77.29
70830;SHT30;58451;51.550;7.208;2022-08-26T03:50:16;20.19;77.03
70830;SHT30;58451;51.550;7.208;2022-08-26T03:52:48;20.17;77.20
70830;SHT30;58451;51.550;7.208;2022-08-26T03:55:21;20.15;78.29
70830;SHT30;58451;51.550;7.208;2022-08-26T03:57:52;20.15;78.34
70830;SHT30;58451;51.550;7.208;2022-08-26T04:00:20;20.14;79.16
70830;SHT30;58451;51.550;7.208;2022-08-26T04:02:47;20.14;79.82
70830;SHT30;58451;51.550;7.208;2022-08-26T04:05:18;20.13;79.91
70830;SHT30;58451;51.550;7.208;2022-08-26T04:07:48;20.14;79.90
70830;SHT30;58451;51.550;7.208;2022-08-26T04:10:17;20.12;79.48
70830;SHT30;58451;51.550;7.208;2022-08-26T04:12:55;20.11;79.54
70830;SHT30;58451;51.550;7.208;2022-08-26T04:15:24;20.11;79.90
70830;SHT30;58451;51.550;7.208;2022-08-26T04:17:52;20.09;80.50
70830;SHT30;58451;51.550;7.208;2022-08-26T04:20:22;20.08;80.87
70830;SHT30;58451;51.550;7.208;2022-08-26T04:22:49;20.06;80.77
70830;SHT30;58451;51.550;7.208;2022-08-26T04:25:15;20.06;80.97
70830;SHT30;58451;51.550;7.208;2022-08-26T04:27:45;20.06;81.21
70830;SHT30;58451;51.550;7.208;2022-08-26T04:30:13;20.07;81.32
70830;SHT30;58451;51.550;7.208;2022-08-26T04:32:42;20.09;81.14
70830;SHT30;58451;51.550;7.208;2022-08-26T04:35:09;20.13;81.11
70830;SHT30;58451;51.550;7.208;2022-08-26T04:37:36;20.16;81.14
70830;SHT30;58451;51.550;7.208;2022-08-26T04:40:03;20.18;80.88
70830;SHT30;58451;51.550;7.208;2022-08-26T04:42:32;20.18;80.63
70830;SHT30;58451;51.550;7.208;2022-08-26T04:44:59;20.21;80.77
70830;SHT30;58451;51.550;7.208;2022-08-26T04:47:31;20.22;80.33
70830;SHT30;58451;51.550;7.208;2022-08-26T04:49:58;20.22;79.74
70830;SHT30;58451;51.550;7.208;2022-08-26T04:52:27;20.24;79.93
70830;SHT30;58451;51.550;7.208;2022-08-26T04:54:56;20.26;80.08
70830;SHT30;58451;51.550;7.208;2022-08-26T04:57:23;20.26;79.95
70830;SHT30;58451;51.550;7.208;2022-08-26T04:59:51;20.29;80.03
70830;SHT30;58451;51.550;7.208;2022-08-26T05:02:18;20.31;79.91
70830;SHT30;58451;51.550;7.208;2022-08-26T05:04:45;20.34;79.99
70830;SHT30;58451;51.550;7.208;2022-08-26T05:07:17;20.38;79.87
70830;SHT30;58451;51.550;7.208;2022-08-26T05:09:44;20.42;79.85
70830;SHT30;58451;51.550;7.208;2022-08-26T05:12:11;20.47;79.49
70830;SHT30;58451;51.550;7.208;2022-08-26T05:14:38;20.51;79.42
70830;SHT30;58451;51.550;7.208;2022-08-26T05:17:06;20.57;79.01
70830;SHT30;58451;51.550;7.208;2022-08-26T05:19:33;20.65;79.17
70830;SHT30;58451;51.550;7.208;2022-08-26T05:22:07;20.70;78.80
70830;SHT30;58451;51.550;7.208;2022-08-26T05:24:34;20.78;78.74
70830;SHT30;58451;51.550;7.208;2022-08-26T05:27:03;20.85;78.62
70830;SHT30;58451;51.550;7.208;2022-08-26T05:29:37;20.90;78.74
70830;SHT30;58451;51.550;7.208;2022-08-26T05:32:04;20.95;78.53
70830;SHT30;58451;51.550;7.208;2022-08-26T05:34:32;21.00;78.54
70830;SHT30;58451;51.550;7.208;2022-08-26T05:37:00;21.05;78.39
70830;SHT30;58451;51.550;7.208;2022-08-26T05:39:27;21.10;77.97
70830;SHT30;58451;51.550;7.208;2022-08-26T05:41:54;21.18;77.83
70830;SHT30;58451;51.550;7.208;2022-08-26T05:44:21;21.25;77.80
70830;SHT30;58451;51.550;7.208;2022-08-26T05:46:48;21.29;77.60
70830;SHT30;58451;51.550;7.208;2022-08-26T05:49:16;21.34;77.40
70830;SHT30;58451;51.550;7.208;2022-08-26T05:51:44;21.39;77.39
70830;SHT30;58451;51.550;7.208;2022-08-26T05:54:13;21.42;77.20
70830;SHT30;58451;51.550;7.208;2022-08-26T05:56:47;21.49;77.09
70830;SHT30;58451;51.550;7.208;2022-08-26T05:59:14;21.53;76.81
70830;SHT30;58451;51.550;7.208;2022-08-26T06:01:46;21.57;76.54
70830;SHT30;58451;51.550;7.208;2022-08-26T06:04:13;21.59;76.21
70830;SHT30;58451;51.550;7.208;2022-08-26T06:06:40;21.64;75.88
70830;SHT30;58451;51.550;7.208;2022-08-26T06:09:08;21.67;75.67
70830;SHT30;58451;51.550;7.208;2022-08-26T06:11:36;21.65;75.59
70830;SHT30;58451;51.550;7.208;2022-08-26T06:14:07;21.70;75.39
70830;SHT30;58451;51.550;7.208;2022-08-26T06:16:36;21.76;75.29
70830;SHT30;58451;51.550;7.208;2022-08-26T06:19:06;21.83;75.08
70830;SHT30;58451;51.550;7.208;2022-08-26T06:21:37;21.87;74.87
70830;SHT30;58451;51.550;7.208;2022-08-26T06:24:10;21.89;74.74
70830;SHT30;58451;51.550;7.208;2022-08-26T06:27:00;21.98;74.58
70830;SHT30;58451;51.550;7.208;2022-08-26T06:29:31;21.96;74.51
70830;SHT30;58451;51.550;7.208;2022-08-26T06:32:03;22.00;74.41
70830;SHT30;58451;51.550;7.208;2022-08-26T06:34:31;22.03;74.15
70830;SHT30;58451;51.550;7.208;2022-08-26T06:36:59;22.04;73.99
70830;SHT30;58451;51.550;7.208;2022-08-26T06:39:29;22.11;73.79
70830;SHT30;58451;51.550;7.208;2022-08-26T06:42:00;22.19;73.46
70830;SHT30;58451;51.550;7.208;2022-08-26T06:44:32;22.24;73.22
70830;SHT30;58451;51.550;7.208;2022-08-26T06:47:00;22.25;73.05
70830;SHT30;58451;51.550;7.208;2022-08-26T06:49:27;22.30;72.88
70830;SHT30;58451;51.550;7.208;2022-08-26T06:51:56;22.33;72.76
70830;SHT30;58451;51.550;7.208;2022-08-26T06:54:25;22.36;72.75
70830;SHT30;58451;51.550;7.208;2022-08-26T06:56:55;22.44;72.55
70830;SHT30;58451;51.550;7.208;2022-08-26T06:59:23;22.48;72.36
70830;SHT30;58451;51.550;7.208;2022-08-26T07:01:51;22.51;72.22
70830;SHT30;58451;51.550;7.208;2022-08-26T07:04:20;22.60;71.92
70830;SHT30;58451;51.550;7.208;2022-08-26T07:06:50;22.61;71.83
70830;SHT30;58451;51.550;7.208;2022-08-26T07:09:23;22.67;71.65
70830;SHT30;58451;51.550;7.208;2022-08-26T07:11:53;22.75;71.35
70830;SHT30;58451;51.550;7.208;2022-08-26T07:14:21;22.80;71.10
70830;SHT30;58451;51.550;7.208;2022-08-26T07:16:51;22.82;71.00
70830;SHT30;58451;51.550;7.208;2022-08-26T07:19:18;22.89;70.81
70830;SHT30;58451;51.550;7.208;2022-08-26T07:21:57;22.95;70.76
70830;SHT30;58451;51.550;7.208;2022-08-26T07:24:29;23.07;70.34
70830;SHT30;58451;51.550;7.208;2022-08-26T07:27:00;23.15;70.04
70830;SHT30;58451;51.550;7.208;2022-08-26T07:29:34;23.17;69.64
70830;SHT30;58451;51.550;7.208;2022-08-26T07:32:04;23.13;69.64
70830;SHT30;58451;51.550;7.208;2022-08-26T07:34:32;23.17;69.79
70830;SHT30;58451;51.550;7.208;2022-08-26T07:36:59;23.26;69.54
70830;SHT30;58451;51.550;7.208;2022-08-26T07:39:27;23.33;69.22
70830;SHT30;58451;51.550;7.208;2022-08-26T07:41:57;23.33;69.14
70830;SHT30;58451;51.550;7.208;2022-08-26T07:44:34;23.39;69.02
70830;SHT30;58451;51.550;7.208;2022-08-26T07:47:03;23.42;68.67
70830;SHT30;58451;51.550;7.208;2022-08-26T07:49:51;23.45;68.33
70830;SHT30;58451;51.550;7.208;2022-08-26T07:52:23;23.48;68.48
70830;SHT30;58451;51.550;7.208;2022-08-26T07:54:55;23.59;68.12
70830;SHT30;58451;51.550;7.208;2022-08-26T07:57:25;23.65;68.07
70830;SHT30;58451;51.550;7.208;2022-08-26T07:59:53;23.70;67.85
70830;SHT30;58451;51.550;7.208;2022-08-26T08:02:22;23.76;67.88
70830;SHT30;58451;51.550;7.208;2022-08-26T08:04:51;23.85;67.59
70830;SHT30;58451;51.550;7.208;2022-08-26T08:07:19;23.93;67.33
70830;SHT30;58451;51.550;7.208;2022-08-26T08:10:07;23.90;66.94
70830;SHT30;58451;51.550;7.208;2022-08-26T08:12:38;23.86;66.98
70830;SHT30;58451;51.550;7.208;2022-08-26T08:15:07;23.87;66.84
70830;SHT30;58451;51.550;7.208;2022-08-26T08:17:39;23.87;66.86
70830;SHT30;58451;51.550;7.208;2022-08-26T08:20:10;23.89;66.79
70830;SHT30;58451;51.550;7.208;2022-08-26T08:22:39;23.97;66.62
70830;SHT30;58451;51.550;7.208;2022-08-26T08:25:08;23.99;66.41
70830;SHT30;58451;51.550;7.208;2022-08-26T08:27:38;23.95;66.52
70830;SHT30;58451;51.550;7.208;2022-08-26T08:30:08;23.92;66.54
70830;SHT30;58451;51.550;7.208;2022-08-26T08:32:39;23.86;66.65
70830;SHT30;58451;51.550;7.208;2022-08-26T08:35:09;23.83;66.49
70830;SHT30;58451;51.550;7.208;2022-08-26T08:37:41;23.75;66.51
70830;SHT30;58451;51.550;7.208;2022-08-26T08:40:11;23.69;66.62
70830;SHT30;58451;51.550;7.208;2022-08-26T08:42:45;23.70;66.58
70830;SHT30;58451;51.550;7.208;2022-08-26T08:45:36;23.72;66.53
70830;SHT30;58451;51.550;7.208;2022-08-26T08:54:00;23.69;66.37
70830;SHT30;58451;51.550;7.208;2022-08-26T08:56:49;23.80;66.18
70830;SHT30;58451;51.550;7.208;2022-08-26T08:59:26;23.97;65.58
70830;SHT30;58451;51.550;7.208;2022-08-26T09:12:58;24.19;64.61
70830;SHT30;58451;51.550;7.208;2022-08-26T09:21:13;24.29;64.12
70830;SHT30;58451;51.550;7.208;2022-08-26T09:23:43;24.34;63.98
70830;SHT30;58451;51.550;7.208;2022-08-26T09:29:14;24.31;63.79
70830;SHT30;58451;51.550;7.208;2022-08-26T09:31:49;24.33;63.99
70830;SHT30;58451;51.550;7.208;2022-08-26T09:34:50;24.56;63.65
70830;SHT30;58451;51.550;7.208;2022-08-26T09:37:48;24.74;63.08
70830;SHT30;58451;51.550;7.208;2022-08-26T09:45:50;25.14;62.26
70830;SHT30;58451;51.550;7.208;2022-08-26T09:48:36;25.38;61.31
70830;SHT30;58451;51.550;7.208;2022-08-26T09:51:23;25.50;60.82
70830;SHT30;58451;51.550;7.208;2022-08-26T09:54:01;25.66;60.97
70830;SHT30;58451;51.550;7.208;2022-08-26T09:56:34;25.92;60.44
70830;SHT30;58451;51.550;7.208;2022-08-26T09:59:07;26.13;59.63
70830;SHT30;58451;51.550;7.208;2022-08-26T10:01:38;26.18;59.04
70830;SHT30;58451;51.550;7.208;2022-08-26T10:04:11;26.26;58.58
70830;SHT30;58451;51.550;7.208;2022-08-26T10:09:24;26.25;58.01
70830;SHT30;58451;51.550;7.208;2022-08-26T10:11:55;26.26;58.33
70830;SHT30;58451;51.550;7.208;2022-08-26T10:14:32;26.38;57.97
70830;SHT30;58451;51.550;7.208;2022-08-26T10:20:18;26.58;57.86
70830;SHT30;58451;51.550;7.208;2022-08-26T10:22:58;26.50;57.37
70830;SHT30;58451;51.550;7.208;2022-08-26T10:25:35;26.26;58.14
70830;SHT30;58451;51.550;7.208;2022-08-26T10:28:09;26.21;58.36
70830;SHT30;58451;51.550;7.208;2022-08-26T10:30:49;26.19;58.50
70830;SHT30;58451;51.550;7.208;2022-08-26T10:33:24;26.29;58.22
70830;SHT30;58451;51.550;7.208;2022-08-26T10:35:58;26.33;58.11
70830;SHT30;58451;51.550;7.208;2022-08-26T10:38:57;26.37;58.34
70830;SHT30;58451;51.550;7.208;2022-08-26T10:41:30;26.44;57.97
70830;SHT30;58451;51.550;7.208;2022-08-26T10:44:03;26.38;57.81
70830;SHT30;58451;51.550;7.208;2022-08-26T10:46:36;26.26;57.93
70830;SHT30;58451;51.550;7.208;2022-08-26T10:49:10;26.15;58.19
70830;SHT30;58451;51.550;7.208;2022-08-26T10:51:46;26.13;58.25
70830;SHT30;58451;51.550;7.208;2022-08-26T10:59:58;26.42;57.29
70830;SHT30;58451;51.550;7.208;2022-08-26T11:03:02;26.35;57.39
70830;SHT30;58451;51.550;7.208;2022-08-26T11:16:56;26.07;57.72
70830;SHT30;58451;51.550;7.208;2022-08-26T11:22:31;25.97;57.96
70830;SHT30;58451;51.550;7.208;2022-08-26T11:25:14;26.07;57.80
70830;SHT30;58451;51.550;7.208;2022-08-26T11:32:51;26.31;57.14
70830;SHT30;58451;51.550;7.208;2022-08-26T11:41:04;26.97;55.68
70830;SHT30;58451;51.550;7.208;2022-08-26T11:43:38;27.08;55.09
70830;SHT30;58451;51.550;7.208;2022-08-26T11:46:10;27.10;54.83
70830;SHT30;58451;51.550;7.208;2022-08-26T11:48:39;27.09;54.50
70830;SHT30;58451;51.550;7.208;2022-08-26T11:53:42;27.31;53.93
70830;SHT30;58451;51.550;7.208;2022-08-26T11:56:26;27.34;54.02
70830;SHT30;58451;51.550;7.208;2022-08-26T11:59:06;27.38;54.23
70830;SHT30;58451;51.550;7.208;2022-08-26T12:01:42;27.37;53.94
70830;SHT30;58451;51.550;7.208;2022-08-26T12:04:26;27.20;54.36
70830;SHT30;58451;51.550;7.208;2022-08-26T12:06:57;27.11;54.49
70830;SHT30;58451;51.550;7.208;2022-08-26T12:09:30;26.86;54.85
70830;SHT30;58451;51.550;7.208;2022-08-26T12:12:14;26.72;55.34
70830;SHT30;58451;51.550;7.208;2022-08-26T12:14:48;26.80;55.33
70830;SHT30;58451;51.550;7.208;2022-08-26T12:17:35;26.89;55.04
70830;SHT30;58451;51.550;7.208;2022-08-26T12:20:15;27.00;55.11
70830;SHT30;58451;51.550;7.208;2022-08-26T12:22:54;27.22;54.71
70830;SHT30;58451;51.550;7.208;2022-08-26T12:25:22;27.28;54.11
70830;SHT30;58451;51.550;7.208;2022-08-26T12:27:50;27.18;54.37
70830;SHT30;58451;51.550;7.208;2022-08-26T12:30:23;27.11;54.37
70830;SHT30;58451;51.550;7.208;2022-08-26T12:32:52;27.00;54.64
70830;SHT30;58451;51.550;7.208;2022-08-26T12:35:48;26.95;54.76
70830;SHT30;58451;51.550;7.208;2022-08-26T12:38:22;27.01;54.70
70830;SHT30;58451;51.550;7.208;2022-08-26T12:40:52;27.01;54.68
70830;SHT30;58451;51.550;7.208;2022-08-26T12:46:23;26.85;54.80
70830;SHT30;58451;51.550;7.208;2022-08-26T12:48:53;26.69;55.17
70830;SHT30;58451;51.550;7.208;2022-08-26T12:51:27;26.64;55.42
70830;SHT30;58451;51.550;7.208;2022-08-26T12:53:57;26.67;55.40
70830;SHT30;58451;51.550;7.208;2022-08-26T12:56:35;26.70;55.42
70830;SHT30;58451;51.550;7.208;2022-08-26T12:59:17;26.81;55.08
70830;SHT30;58451;51.550;7.208;2022-08-26T13:01:50;26.86;54.83
70830;SHT30;58451;51.550;7.208;2022-08-26T13:04:36;26.83;55.01
70830;SHT30;58451;51.550;7.208;2022-08-26T13:07:12;26.82;55.08
70830;SHT30;58451;51.550;7.208;2022-08-26T13:09:51;26.83;55.10
70830;SHT30;58451;51.550;7.208;2022-08-26T13:12:25;26.81;55.09
70830;SHT30;58451;51.550;7.208;2022-08-26T13:14:52;26.79;55.27
70830;SHT30;58451;51.550;7.208;2022-08-26T13:17:19;26.83;55.08
70830;SHT30;58451;51.550;7.208;2022-08-26T13:19:46;26.80;55.09
70830;SHT30;58451;51.550;7.208;2022-08-26T13:22:19;26.78;55.19
70830;SHT30;58451;51.550;7.208;2022-08-26T13:24:50;26.79;55.22
70830;SHT30;58451;51.550;7.208;2022-08-26T13:27:22;26.75;55.28
70830;SHT30;58451;51.550;7.208;2022-08-26T13:29:52;26.67;55.42
70830;SHT30;58451;51.550;7.208;2022-08-26T13:32:20;26.50;55.71
70830;SHT30;58451;51.550;7.208;2022-08-26T13:34:53;26.21;56.39
70830;SHT30;58451;51.550;7.208;2022-08-26T13:37:22;25.97;56.96
70830;SHT30;58451;51.550;7.208;2022-08-26T13:40:00;25.78;57.52
70830;SHT30;58451;51.550;7.208;2022-08-26T13:42:31;25.71;57.83
70830;SHT30;58451;51.550;7.208;2022-08-26T13:44:59;25.68;57.95
70830;SHT30;58451;51.550;7.208;2022-08-26T13:47:27;25.70;57.79
70830;SHT30;58451;51.550;7.208;2022-08-26T13:49:54;25.73;57.64
70830;SHT30;58451;51.550;7.208;2022-08-26T13:52:22;25.83;57.51
70830;SHT30;58451;51.550;7.208;2022-08-26T13:54:56;26.02;57.00
70830;SHT30;58451;51.550;7.208;2022-08-26T13:57:26;26.05;56.79
70830;SHT30;58451;51.550;7.208;2022-08-26T13:59:55;26.06;56.81
70830;SHT30;58451;51.550;7.208;2022-08-26T14:02:24;26.14;56.77
70830;SHT30;58451;51.550;7.208;2022-08-26T14:04:53;26.23;56.64
70830;SHT30;58451;51.550;7.208;2022-08-26T14:07:21;26.33;56.19
70830;SHT30;58451;51.550;7.208;2022-08-26T14:09:48;26.38;55.90
70830;SHT30;58451;51.550;7.208;2022-08-26T14:12:15;26.45;55.87
70830;SHT30;58451;51.550;7.208;2022-08-26T14:14:42;26.60;55.60
70830;SHT30;58451;51.550;7.208;2022-08-26T14:17:11;26.76;55.12
70830;SHT30;58451;51.550;7.208;2022-08-26T14:19:47;26.82;54.22
70830;SHT30;58451;51.550;7.208;2022-08-26T14:22:17;26.78;54.13
70830;SHT30;58451;51.550;7.208;2022-08-26T14:24:47;26.71;53.84
70830;SHT30;58451;51.550;7.208;2022-08-26T14:27:15;26.58;54.06
70830;SHT30;58451;51.550;7.208;2022-08-26T14:29:42;26.64;54.05
70830;SHT30;58451;51.550;7.208;2022-08-26T14:32:11;26.68;54.01
70830;SHT30;58451;51.550;7.208;2022-08-26T14:34:49;26.73;53.77
70830;SHT30;58451;51.550;7.208;2022-08-26T14:37:16;26.66;53.97
70830;SHT30;58451;51.550;7.208;2022-08-26T14:39:45;26.56;54.08
70830;SHT30;58451;51.550;7.208;2022-08-26T14:42:12;26.46;54.28
70830;SHT30;58451;51.550;7.208;2022-08-26T14:44:46;26.38;54.48
70830;SHT30;58451;51.550;7.208;2022-08-26T14:47:21;26.29;54.68
70830;SHT30;58451;51.550;7.208;2022-08-26T14:49:48;26.25;55.00
70830;SHT30;58451;51.550;7.208;2022-08-26T14:52:15;26.10;55.31
70830;SHT30;58451;51.550;7.208;2022-08-26T14:54:43;26.02;55.65
70830;SHT30;58451;51.550;7.208;2022-08-26T14:57:11;25.97;55.88
70830;SHT30;58451;51.550;7.208;2022-08-26T14:59:41;25.93;56.05
70830;SHT30;58451;51.550;7.208;2022-08-26T15:02:15;25.98;56.06
70830;SHT30;58451;51.550;7.208;2022-08-26T15:04:59;26.06;55.97
70830;SHT30;58451;51.550;7.208;2022-08-26T15:07:28;26.17;55.74
70830;SHT30;58451;51.550;7.208;2022-08-26T15:09:55;26.14;55.72
70830;SHT30;58451;51.550;7.208;2022-08-26T15:12:22;26.04;55.77
70830;SHT30;58451;51.550;7.208;2022-08-26T15:14:48;25.94;56.01
70830;SHT30;58451;51.550;7.208;2022-08-26T15:17:15;25.92;55.98
70830;SHT30;58451;51.550;7.208;2022-08-26T15:19:42;25.99;55.89
70830;SHT30;58451;51.550;7.208;2022-08-26T15:22:10;26.02;55.66
70830;SHT30;58451;51.550;7.208;2022-08-26T15:24:37;25.82;56.10
70830;SHT30;58451;51.550;7.208;2022-08-26T15:27:03;25.73;56.46
70830;SHT30;58451;51.550;7.208;2022-08-26T15:29:30;25.63;56.72
70830;SHT30;58451;51.550;7.208;2022-08-26T15:32:01;25.62;56.98
70830;SHT30;58451;51.550;7.208;2022-08-26T15:34:30;25.49;57.06
70830;SHT30;58451;51.550;7.208;2022-08-26T15:36:57;25.50;57.07
70830;SHT30;58451;51.550;7.208;2022-08-26T15:39:24;25.50;57.21
70830;SHT30;58451;51.550;7.208;2022-08-26T15:41:51;25.45;57.34
70830;SHT30;58451;51.550;7.208;2022-08-26T15:44:18;25.35;57.49
70830;SHT30;58451;51.550;7.208;2022-08-26T15:46:46;25.11;57.95
70830;SHT30;58451;51.550;7.208;2022-08-26T15:49:14;24.89;58.58
70830;SHT30;58451;51.550;7.208;2022-08-26T15:51:44;24.74;59.05
70830;SHT30;58451;51.550;7.208;2022-08-26T15:54:14;24.67;59.28
70830;SHT30;58451;51.550;7.208;2022-08-26T15:56:44;24.60;59.68
70830;SHT30;58451;51.550;7.208;2022-08-26T15:59:14;24.43;60.13
70830;SHT30;58451;51.550;7.208;2022-08-26T16:01:42;24.29;60.63
70830;SHT30;58451;51.550;7.208;2022-08-26T16:04:09;24.17;60.90
70830;SHT30;58451;51.550;7.208;2022-08-26T16:06:37;24.04;61.42
70830;SHT30;58451;51.550;7.208;2022-08-26T16:09:06;23.90;61.63
70830;SHT30;58451;51.550;7.208;2022-08-26T16:11:34;23.86;61.78
70830;SHT30;58451;51.550;7.208;2022-08-26T16:14:02;23.83;61.66
70830;SHT30;58451;51.550;7.208;2022-08-26T16:16:31;23.83;61.45
70830;SHT30;58451;51.550;7.208;2022-08-26T16:18:58;23.85;61.67
70830;SHT30;58451;51.550;7.208;2022-08-26T16:21:32;23.86;61.53
70830;SHT30;58451;51.550;7.208;2022-08-26T16:23:59;23.81;61.80
70830;SHT30;58451;51.550;7.208;2022-08-26T16:26:27;23.73;61.78
70830;SHT30;58451;51.550;7.208;2022-08-26T16:29:01;23.70;62.21
70830;SHT30;58451;51.550;7.208;2022-08-26T16:31:34;23.65;62.54
70830;SHT30;58451;51.550;7.208;2022-08-26T16:34:03;23.62;62.63
70830;SHT30;58451;51.550;7.208;2022-08-26T16:36:33;23.55;62.79
70830;SHT30;58451;51.550;7.208;2022-08-26T16:39:03;23.48;62.79
70830;SHT30;58451;51.550;7.208;2022-08-26T16:41:33;23.45;62.82
70830;SHT30;58451;51.550;7.208;2022-08-26T16:44:01;23.43;62.83
70830;SHT30;58451;51.550;7.208;2022-08-26T16:46:29;23.39;62.73
70830;SHT30;58451;51.550;7.208;2022-08-26T16:48:57;23.36;63.01
70830;SHT30;58451;51.550;7.208;2022-08-26T16:51:27;23.30;63.22
70830;SHT30;58451;51.550;7.208;2022-08-26T16:53:54;23.28;63.17
70830;SHT30;58451;51.550;7.208;2022-08-26T16:56:24;23.23;63.73
70830;SHT30;58451;51.550;7.208;2022-08-26T16:59:00;23.15;63.79
70830;SHT30;58451;51.550;7.208;2022-08-26T17:01:30;23.04;64.12
70830;SHT30;58451;51.550;7.208;2022-08-26T17:03:57;22.95;64.38
70830;SHT30;58451;51.550;7.208;2022-08-26T17:06:24;22.88;64.41
70830;SHT30;58451;51.550;7.208;2022-08-26T17:08:51;22.84;64.41
70830;SHT30;58451;51.550;7.208;2022-08-26T17:11:19;22.82;64.32
70830;SHT30;58451;51.550;7.208;2022-08-26T17:13:46;22.77;64.51